Time;durP1;ratioP1;P1;durP2;ratioP2;P2;SDS_P1;SDS_P2;PMS_P1;PMS_P2;Temp;Humidity;BMP_temperature;BMP_pressure;BME280_temperature;BME280_humidity;BME280_pressure;Samples;Min_cycle;Max_cycle;Signal;HPM_P1;HPM_P2
2023/05/24 00:00:22;;;;;;;6.45;2.10;;;21.00;1.00;;;;;;5012533;28;20038;-47
2023/05/24 00:02:49;;;;;;;5.40;1.65;;;20.90;1.00;;;;;;5012548;28;20121;-47
2023/05/24 00:05:17;;;;;;;4.20;1.10;;;20.90;1.00;;;;;;5003960;28;20038;-49
2023/05/24 00:07:44;;;;;;;5.28;1.52;;;20.90;1.00;;;;;;5000645;28;20042;-47
2023/05/24 00:10:11;;;;;;;3.95;1.45;;;20.90;1.00;;;;;;5011360;28;20046;-47
2023/05/24 00:12:38;;;;;;;7.28;1.85;;;20.90;1.00;;;;;;5012234;28;20124;-47
2023/05/24 00:15:05;;;;;;;2.47;1.10;;;20.90;1.00;;;;;;5011909;28;20501;-49
2023/05/24 00:17:33;;;;;;;5.55;1.88;;;20.90;1.00;;;;;;5012073;28;20427;-47
2023/05/24 00:20:00;;;;;;;4.03;1.88;;;20.90;1.00;;;;;;5012087;28;20069;-48
2023/05/24 00:22:27;;;;;;;4.15;1.40;;;20.90;1.00;;;;;;5016286;28;20038;-47
2023/05/24 00:24:53;;;;;;;7.13;1.58;;;20.90;1.00;;;;;;5016118;28;20042;-47
2023/05/24 00:27:20;;;;;;;5.30;2.25;;;20.90;1.00;;;;;;5016046;28;20485;-49
2023/05/24 00:29:47;;;;;;;4.07;2.05;;;20.90;1.00;;;;;;5016168;28;20150;-47
2023/05/24 00:32:14;;;;;;;8.40;2.40;;;20.80;1.00;;;;;;4998057;28;20060;-46
2023/05/24 00:34:41;;;;;;;4.05;1.13;;;20.80;1.00;;;;;;4998349;28;20444;-46
2023/05/24 00:37:09;;;;;;;5.25;1.77;;;20.80;1.00;;;;;;5015919;28;20037;-47
2023/05/24 00:39:36;;;;;;;5.60;1.85;;;20.80;1.00;;;;;;4998375;28;20038;-46
2023/05/24 00:42:03;;;;;;;4.18;1.45;;;20.80;1.00;;;;;;5015729;28;20120;-48
2023/05/24 00:44:30;;;;;;;8.05;1.58;;;20.80;1.00;;;;;;4998156;28;20088;-46
2023/05/24 00:46:57;;;;;;;3.58;1.27;;;20.80;1.00;;;;;;4997977;28;20080;-46
2023/05/24 00:49:25;;;;;;;7.55;1.92;;;20.80;1.00;;;;;;5015706;28;20520;-46
2023/05/24 00:51:53;;;;;;;4.70;1.20;;;20.80;1.00;;;;;;4966247;28;20464;-49
2023/05/24 00:54:20;;;;;;;7.50;1.88;;;20.80;1.00;;;;;;4990087;28;20394;-46
2023/05/24 00:56:48;;;;;;;4.28;1.35;;;20.80;1.00;;;;;;4997938;28;20497;-46
2023/05/24 00:59:15;;;;;;;3.63;1.25;;;20.70;1.00;;;;;;4997871;28;20089;-46
2023/05/24 01:01:45;;;;;;;5.25;1.92;;;20.70;1.00;;;;;;4997644;28;20461;-47
2023/05/24 01:04:13;;;;;;;8.88;1.50;;;20.70;1.00;;;;;;5016541;28;20489;-46
2023/05/24 01:07:06;;;;;;;5.70;2.15;;;20.70;1.00;;;;;;5010035;28;20037;-47
2023/05/24 01:09:42;;;;;;;5.40;1.90;;;20.70;1.00;;;;;;5015388;28;20042;-47
2023/05/24 01:12:31;;;;;;;10.38;2.72;;;20.70;1.00;;;;;;5015326;28;20056;-46
2023/05/24 01:15:18;;;;;;;7.00;1.75;;;20.70;1.00;;;;;;4997771;28;20391;-46
2023/05/24 01:17:50;;;;;;;5.75;1.48;;;20.70;1.00;;;;;;4997481;28;20049;-47
2023/05/24 01:20:19;;;;;;;6.47;2.25;;;20.70;1.00;;;;;;4997362;28;20038;-46
2023/05/24 01:23:12;;;;;;;6.82;1.63;;;20.70;1.00;;;;;;4997481;28;20049;-46
2023/05/24 01:25:57;;;;;;;5.63;1.63;;;20.60;1.00;;;;;;4997448;28;20100;-46
2023/05/24 01:28:25;;;;;;;4.90;1.58;;;20.60;1.00;;;;;;5015030;28;20041;-46
2023/05/24 01:30:54;;;;;;;6.43;1.58;;;20.60;1.00;;;;;;5015152;28;20066;-47
2023/05/24 01:33:22;;;;;;;11.40;1.90;;;20.60;1.00;;;;;;4997394;28;20382;-46
2023/05/24 01:35:49;;;;;;;3.60;1.08;;;20.60;1.00;;;;;;5015122;28;20049;-46
2023/05/24 01:38:16;;;;;;;6.07;1.38;;;20.60;1.00;;;;;;4997030;28;20445;-46
2023/05/24 01:40:46;;;;;;;8.82;1.52;;;20.60;1.00;;;;;;4997291;28;20046;-46
2023/05/24 01:43:15;;;;;;;3.83;1.13;;;20.60;1.00;;;;;;4996798;28;20452;-47
2023/05/24 01:46:01;;;;;;;10.45;1.80;;;20.60;1.00;;;;;;5014805;28;20065;-48
2023/05/24 01:48:45;;;;;;;6.07;1.67;;;20.60;1.00;;;;;;5014643;28;20042;-48
2023/05/24 01:51:17;;;;;;;5.68;1.88;;;20.60;1.00;;;;;;5014611;28;20045;-49
2023/05/24 01:53:47;;;;;;;7.88;2.10;;;20.50;1.00;;;;;;5014470;28;20141;-47
2023/05/24 01:56:18;;;;;;;2.78;1.27;;;20.50;1.00;;;;;;4996949;28;20501;-48
2023/05/24 01:58:47;;;;;;;3.75;1.10;;;20.50;1.00;;;;;;4996785;28;20049;-48
2023/05/24 02:01:14;;;;;;;5.05;1.85;;;20.50;1.00;;;;;;4994408;28;20046;-47
2023/05/24 02:03:41;;;;;;;6.28;1.58;;;20.50;1.00;;;;;;5010292;28;20556;-46
2023/05/24 02:06:09;;;;;;;5.18;1.52;;;20.50;1.00;;;;;;4998739;28;20038;-46
2023/05/24 02:08:38;;;;;;;8.05;1.33;;;20.50;1.00;;;;;;4977210;28;20511;-47
2023/05/24 02:11:05;;;;;;;5.53;2.13;;;20.50;1.00;;;;;;4994537;28;20046;-45
2023/05/24 02:13:32;;;;;;;5.03;1.40;;;20.50;1.00;;;;;;4976971;28;20128;-49
2023/05/24 02:15:59;;;;;;;9.20;1.42;;;20.50;1.00;;;;;;5002937;28;20046;-47
2023/05/24 02:18:25;;;;;;;5.43;1.52;;;20.50;1.00;;;;;;4988594;28;20092;-47
2023/05/24 02:20:52;;;;;;;6.38;1.73;;;20.50;1.00;;;;;;5013953;28;20038;-48
2023/05/24 02:23:21;;;;;;;7.25;1.60;;;20.40;1.00;;;;;;5014012;28;20030;-47
2023/05/24 02:25:48;;;;;;;3.30;1.08;;;20.50;1.00;;;;;;4996359;28;20097;-47
2023/05/24 02:28:14;;;;;;;5.95;2.03;;;20.50;1.00;;;;;;5013987;28;20394;-46
2023/05/24 02:30:43;;;;;;;5.40;1.23;;;20.40;1.00;;;;;;4988352;28;20076;-48
2023/05/24 02:33:11;;;;;;;7.82;1.98;;;20.40;1.00;;;;;;5013777;28;20494;-47
2023/05/24 02:35:40;;;;;;;7.88;1.63;;;20.40;1.00;;;;;;4996069;28;20072;-47
2023/05/24 02:38:08;;;;;;;4.95;1.60;;;20.40;1.00;;;;;;5013674;28;20046;-47
2023/05/24 02:40:35;;;;;;;3.70;1.35;;;20.40;1.00;;;;;;5013710;28;20377;-47
2023/05/24 02:43:02;;;;;;;7.88;2.67;;;20.40;1.00;;;;;;5013260;28;20473;-46
2023/05/24 02:45:29;;;;;;;4.13;1.42;;;20.40;1.00;;;;;;4992075;28;20189;-47
2023/05/24 02:47:56;;;;;;;4.05;1.40;;;20.40;1.00;;;;;;4991901;28;20478;-47
2023/05/24 02:50:23;;;;;;;7.15;1.65;;;20.40;1.00;;;;;;4995844;28;20468;-47
2023/05/24 02:52:50;;;;;;;7.45;2.50;;;20.40;1.00;;;;;;4995991;28;20038;-46
2023/05/24 02:55:17;;;;;;;5.63;1.77;;;20.40;1.00;;;;;;4995743;28;20041;-47
2023/05/24 02:57:44;;;;;;;5.82;1.95;;;20.40;1.00;;;;;;4995553;28;20046;-46
2023/05/24 03:00:12;;;;;;;4.13;1.50;;;20.40;1.00;;;;;;4995688;28;20046;-47
2023/05/24 03:02:40;;;;;;;6.95;2.00;;;20.40;1.00;;;;;;4997782;28;20375;-49
2023/05/24 03:05:07;;;;;;;4.05;1.83;;;20.40;1.00;;;;;;5017443;28;20045;-48
2023/05/24 03:07:35;;;;;;;11.20;2.28;;;20.40;1.00;;;;;;4995495;28;20037;-47
2023/05/24 03:10:02;;;;;;;7.70;1.83;;;20.30;1.00;;;;;;4995516;28;20054;-49
2023/05/24 03:12:29;;;;;;;4.43;0.85;;;20.30;1.00;;;;;;4995501;28;20649;-47
2023/05/24 03:14:56;;;;;;;4.38;1.95;;;20.30;1.00;;;;;;4987956;28;20046;-47
2023/05/24 03:17:23;;;;;;;8.05;1.77;;;20.30;1.00;;;;;;4994562;28;20427;-47
2023/05/24 03:19:51;;;;;;;6.50;1.40;;;20.30;1.00;;;;;;4995449;28;20050;-47
2023/05/24 03:22:18;;;;;;;5.72;1.77;;;20.30;1.00;;;;;;4995162;28;20046;-48
2023/05/24 03:24:46;;;;;;;7.93;2.08;;;20.30;1.00;;;;;;5012866;28;20497;-46
2023/05/24 03:27:13;;;;;;;5.57;1.88;;;20.30;1.00;;;;;;4994991;28;20046;-47
2023/05/24 03:29:39;;;;;;;4.40;1.52;;;20.20;1.00;;;;;;4994562;28;20050;-47
2023/05/24 03:32:06;;;;;;;5.22;1.98;;;20.30;1.00;;;;;;5011512;28;20060;-47
2023/05/24 03:34:33;;;;;;;5.95;1.80;;;20.20;1.00;;;;;;4994960;28;20046;-47
2023/05/24 03:37:01;;;;;;;5.22;1.40;;;20.20;1.00;;;;;;4994934;28;20096;-47
2023/05/24 03:39:28;;;;;;;8.35;2.22;;;20.20;1.00;;;;;;5011602;28;20045;-47
2023/05/24 03:42:12;;;;;;;5.97;2.05;;;20.20;1.00;;;;;;4994759;28;20070;-47
2023/05/24 03:44:39;;;;;;;5.45;1.85;;;20.20;1.00;;;;;;4994815;28;20497;-47
2023/05/24 03:47:06;;;;;;;2.22;1.10;;;20.20;1.00;;;;;;4994667;28;20038;-51
2023/05/24 03:49:33;;;;;;;4.22;1.80;;;20.20;1.00;;;;;;4994930;28;20132;-47
2023/05/24 03:52:00;;;;;;;5.80;1.90;;;20.20;1.00;;;;;;5012660;28;20647;-47
2023/05/24 03:54:27;;;;;;;5.78;1.80;;;20.20;1.00;;;;;;5011951;28;20089;-49
2023/05/24 03:56:54;;;;;;;4.82;1.08;;;20.20;1.00;;;;;;5011849;28;20042;-46
2023/05/24 03:59:21;;;;;;;4.97;1.35;;;20.20;1.00;;;;;;4994560;28;20148;-47
2023/05/24 04:01:48;;;;;;;5.57;1.45;;;20.20;1.00;;;;;;4994661;28;20049;-47
2023/05/24 04:04:15;;;;;;;2.97;1.13;;;20.20;1.00;;;;;;4987300;28;20384;-46
2023/05/24 04:06:42;;;;;;;5.85;1.50;;;20.20;1.00;;;;;;4997051;28;20057;-47
2023/05/24 04:09:08;;;;;;;5.68;1.52;;;20.20;1.00;;;;;;5008625;28;20073;-47
2023/05/24 04:11:35;;;;;;;5.22;1.58;;;20.10;1.00;;;;;;4999386;28;20070;-48
2023/05/24 04:14:02;;;;;;;5.20;1.38;;;20.10;1.00;;;;;;4999134;28;20070;-47
2023/05/24 04:16:32;;;;;;;3.42;1.08;;;20.10;1.00;;;;;;4994629;28;20053;-48
2023/05/24 04:19:02;;;;;;;4.18;1.45;;;20.20;1.00;;;;;;4999216;28;20416;-47
2023/05/24 04:21:30;;;;;;;20.65;3.17;;;20.10;1.00;;;;;;5009149;28;20065;-47
2023/05/24 04:24:00;;;;;;;7.13;1.30;;;20.10;1.00;;;;;;5015608;28;20041;-47
2023/05/24 04:26:27;;;;;;;11.13;1.60;;;20.10;1.00;;;;;;4993040;28;20045;-47
2023/05/24 04:28:54;;;;;;;10.25;1.70;;;20.10;1.00;;;;;;5011952;28;20038;-48
2023/05/24 04:31:21;;;;;;;8.13;1.48;;;20.10;1.00;;;;;;4994374;28;20038;-46
2023/05/24 04:33:48;;;;;;;7.50;1.80;;;20.10;1.00;;;;;;4994236;28;20049;-46
2023/05/24 04:36:16;;;;;;;7.72;1.67;;;20.10;1.00;;;;;;4994182;28;20053;-50
2023/05/24 04:38:45;;;;;;;4.50;1.10;;;20.10;1.00;;;;;;4994278;28;20042;-49
2023/05/24 04:41:12;;;;;;;4.93;1.27;;;20.10;1.00;;;;;;5011908;28;20049;-47
2023/05/24 04:43:39;;;;;;;6.78;2.08;;;20.10;1.00;;;;;;5011853;28;20505;-47
2023/05/24 04:46:06;;;;;;;4.45;1.38;;;20.10;1.00;;;;;;5004024;28;20077;-49
2023/05/24 04:48:35;;;;;;;6.55;1.50;;;20.10;1.00;;;;;;4992108;28;20030;-46
2023/05/24 04:51:02;;;;;;;13.43;2.13;;;20.00;1.00;;;;;;4992270;28;20121;-47
2023/05/24 04:53:29;;;;;;;4.13;1.60;;;20.10;1.00;;;;;;4992103;28;20043;-49
2023/05/24 04:55:56;;;;;;;6.50;1.60;;;20.00;1.00;;;;;;4993045;28;20063;-47
2023/05/24 04:58:22;;;;;;;10.32;2.67;;;20.00;1.00;;;;;;5004689;28;20498;-47
2023/05/24 05:00:50;;;;;;;8.98;1.73;;;20.00;1.00;;;;;;5011671;28;20034;-48
2023/05/24 05:03:17;;;;;;;6.32;1.98;;;20.00;1.00;;;;;;5010587;28;20030;-47
2023/05/24 05:05:45;;;;;;;5.50;1.75;;;20.00;1.00;;;;;;5004115;28;20521;-47
2023/05/24 05:08:12;;;;;;;7.55;1.48;;;20.00;1.00;;;;;;4995216;28;20039;-50
2023/05/24 05:10:39;;;;;;;5.28;1.65;;;20.00;1.00;;;;;;4996019;28;20034;-47
2023/05/24 05:13:06;;;;;;;8.50;1.52;;;20.00;1.00;;;;;;5000056;28;20093;-47
2023/05/24 05:15:33;;;;;;;7.03;1.48;;;20.00;1.00;;;;;;5012513;28;20038;-47
2023/05/24 05:18:00;;;;;;;7.15;2.10;;;20.00;1.00;;;;;;5013719;28;20046;-47
2023/05/24 05:20:27;;;;;;;7.20;2.40;;;20.00;1.00;;;;;;5019901;28;20061;-47
2023/05/24 05:22:54;;;;;;;5.70;2.17;;;20.00;1.00;;;;;;5021131;28;20034;-50
2023/05/24 05:25:20;;;;;;;7.47;1.75;;;20.00;1.00;;;;;;5017258;28;20036;-49
2023/05/24 05:27:47;;;;;;;5.90;1.73;;;20.00;1.00;;;;;;5015166;28;20497;-46
2023/05/24 05:30:14;;;;;;;5.13;1.95;;;20.00;1.00;;;;;;5015008;28;20129;-47
2023/05/24 05:32:41;;;;;;;10.30;1.88;;;20.00;1.00;;;;;;5014854;28;20044;-50
2023/05/24 05:35:08;;;;;;;9.77;2.15;;;20.00;1.00;;;;;;5014975;28;20046;-47
2023/05/24 05:37:35;;;;;;;3.22;1.10;;;20.00;1.00;;;;;;5014945;28;20045;-47
2023/05/24 05:40:03;;;;;;;5.20;1.90;;;20.00;1.00;;;;;;5014921;28;20053;-48
2023/05/24 05:42:30;;;;;;;8.35;2.17;;;20.00;1.00;;;;;;5014790;28;20038;-48
2023/05/24 05:44:57;;;;;;;5.03;1.35;;;20.00;1.00;;;;;;5014639;28;20129;-47
2023/05/24 05:47:24;;;;;;;7.25;1.88;;;20.00;1.00;;;;;;5014697;28;20548;-50
2023/05/24 05:49:50;;;;;;;9.00;2.30;;;20.00;1.00;;;;;;5014742;28;20046;-50
2023/05/24 05:52:17;;;;;;;3.72;1.27;;;20.00;1.00;;;;;;5014590;28;20046;-50
2023/05/24 05:54:44;;;;;;;5.30;1.20;;;20.00;1.00;;;;;;5014783;28;20060;-47
2023/05/24 05:57:11;;;;;;;9.98;1.65;;;20.00;1.00;;;;;;5014298;28;20117;-50
2023/05/24 05:59:38;;;;;;;4.88;1.58;;;20.00;1.00;;;;;;5014450;28;20057;-47
2023/05/24 06:02:05;;;;;;;6.32;2.22;;;20.00;1.00;;;;;;5014485;28;20038;-47
2023/05/24 06:04:33;;;;;;;6.20;2.00;;;20.00;1.00;;;;;;5017477;28;20053;-48
2023/05/24 06:07:00;;;;;;;7.13;1.55;;;20.00;1.00;;;;;;4994734;28;20042;-50
2023/05/24 06:09:27;;;;;;;4.20;1.58;;;20.00;1.00;;;;;;4995380;28;20444;-48
2023/05/24 06:11:54;;;;;;;4.40;1.85;;;20.00;1.00;;;;;;5014183;28;20041;-48
2023/05/24 06:14:21;;;;;;;6.35;2.20;;;20.00;1.00;;;;;;5014129;28;20046;-47
2023/05/24 06:16:47;;;;;;;4.35;1.33;;;20.00;1.00;;;;;;5014154;28;20046;-47
2023/05/24 06:19:15;;;;;;;4.97;1.90;;;20.00;1.00;;;;;;5013101;28;20034;-50
2023/05/24 06:21:46;;;;;;;5.60;1.17;;;20.00;1.00;;;;;;5014032;28;20038;-47
2023/05/24 06:24:14;;;;;;;6.47;1.83;;;20.00;1.00;;;;;;5013851;28;20053;-47
2023/05/24 06:26:41;;;;;;;4.55;1.88;;;20.00;1.00;;;;;;5013950;28;20034;-48
2023/05/24 06:29:08;;;;;;;7.55;2.45;;;20.00;1.00;;;;;;5013841;28;20065;-51
2023/05/24 06:31:35;;;;;;;7.05;2.08;;;20.00;1.00;;;;;;5010919;28;20053;-47
2023/05/24 06:34:02;;;;;;;6.50;1.98;;;20.00;1.00;;;;;;4994131;28;20039;-48
2023/05/24 06:36:41;;;;;;;6.30;2.28;;;20.00;1.00;;;;;;4994248;28;20116;-47
2023/05/24 06:39:09;;;;;;;4.05;1.38;;;20.10;1.00;;;;;;4993961;28;20042;-48
2023/05/24 06:41:37;;;;;;;4.15;1.50;;;20.10;1.00;;;;;;4993932;28;20414;-49
2023/05/24 06:44:04;;;;;;;5.70;1.80;;;20.10;1.00;;;;;;4993972;28;20070;-47
2023/05/24 06:46:31;;;;;;;6.70;1.83;;;20.10;1.00;;;;;;4994075;28;20047;-47
2023/05/24 06:48:58;;;;;;;7.47;1.70;;;20.10;1.00;;;;;;4999872;28;20049;-47
2023/05/24 06:51:25;;;;;;;4.18;1.45;;;20.10;1.00;;;;;;5013345;28;20038;-47
2023/05/24 06:53:52;;;;;;;8.20;1.73;;;20.10;1.00;;;;;;5013228;28;20034;-47
2023/05/24 06:56:19;;;;;;;6.65;1.55;;;20.10;1.00;;;;;;5013278;28;20092;-47
2023/05/24 06:58:46;;;;;;;4.65;1.20;;;20.10;1.00;;;;;;5012896;28;20091;-47
2023/05/24 07:01:14;;;;;;;4.40;1.27;;;20.10;1.00;;;;;;5013346;28;20034;-48
2023/05/24 07:03:41;;;;;;;9.27;1.77;;;20.10;1.00;;;;;;5014702;28;20513;-48
2023/05/24 07:06:11;;;;;;;3.45;1.67;;;20.10;1.00;;;;;;5001912;28;20035;-47
2023/05/24 07:08:37;;;;;;;4.30;1.25;;;20.10;1.00;;;;;;4993269;28;20041;-47
2023/05/24 07:11:05;;;;;;;4.88;1.30;;;20.10;1.00;;;;;;4976337;28;20041;-49
2023/05/24 07:13:32;;;;;;;7.40;1.15;;;20.10;1.00;;;;;;4993259;28;20046;-48
2023/05/24 07:15:58;;;;;;;4.82;1.67;;;20.10;1.00;;;;;;4999309;28;20046;-47
2023/05/24 07:18:25;;;;;;;9.95;1.40;;;20.10;1.00;;;;;;5012893;28;20073;-47
2023/05/24 07:20:53;;;;;;;4.30;1.17;;;20.10;1.00;;;;;;4995457;28;20068;-47
2023/05/24 07:23:20;;;;;;;7.25;1.92;;;20.10;1.00;;;;;;5012658;28;20062;-47
2023/05/24 07:25:48;;;;;;;5.53;0.98;;;20.10;1.00;;;;;;5012816;28;20634;-47
2023/05/24 07:28:16;;;;;;;9.15;1.98;;;20.20;1.00;;;;;;4994972;28;20042;-47
2023/05/24 07:30:44;;;;;;;4.43;2.03;;;20.20;1.00;;;;;;5012658;28;20554;-48
2023/05/24 07:33:11;;;;;;;2.20;0.88;;;20.20;1.00;;;;;;5012646;28;20042;-48
2023/05/24 07:35:38;;;;;;;5.82;1.45;;;20.20;1.00;;;;;;5012410;28;20042;-47
2023/05/24 07:38:05;;;;;;;4.43;1.80;;;20.20;1.00;;;;;;5012548;28;20046;-48
2023/05/24 07:40:32;;;;;;;7.82;2.25;;;20.20;1.00;;;;;;5012587;28;20045;-47
2023/05/24 07:42:59;;;;;;;5.35;1.40;;;20.20;1.00;;;;;;5012548;28;20034;-47
2023/05/24 07:45:26;;;;;;;4.30;1.92;;;20.20;1.00;;;;;;5012421;28;20116;-50
2023/05/24 07:47:53;;;;;;;7.82;1.20;;;20.20;1.00;;;;;;5012178;28;20137;-48
2023/05/24 07:50:22;;;;;;;4.28;2.10;;;20.20;1.00;;;;;;5012590;28;20061;-48
2023/05/24 07:52:50;;;;;;;6.25;1.60;;;20.20;1.00;;;;;;5012321;28;20042;-47
2023/05/24 07:55:17;;;;;;;5.53;1.42;;;20.20;1.00;;;;;;5012184;28;20042;-47
2023/05/24 07:57:43;;;;;;;7.47;1.77;;;20.20;1.00;;;;;;5012598;28;20048;-48
2023/05/24 08:00:13;;;;;;;4.78;1.50;;;20.20;1.00;;;;;;5012356;28;20100;-48
2023/05/24 08:02:41;;;;;;;6.20;1.30;;;20.20;1.00;;;;;;5012417;28;20080;-48
2023/05/24 08:05:12;;;;;;;8.45;1.98;;;20.20;1.00;;;;;;5010581;28;20477;-48
2023/05/24 08:07:40;;;;;;;6.60;1.38;;;20.20;1.00;;;;;;5012218;28;20042;-48
2023/05/24 08:10:11;;;;;;;5.20;1.80;;;20.20;1.00;;;;;;5012216;28;20044;-48
2023/05/24 08:12:38;;;;;;;6.55;2.17;;;20.30;1.00;;;;;;5012195;28;20125;-48
2023/05/24 08:15:06;;;;;;;6.32;1.80;;;20.30;1.00;;;;;;5012166;28;20410;-48
2023/05/24 08:17:33;;;;;;;5.70;1.63;;;20.20;1.00;;;;;;5011780;28;20053;-49
2023/05/24 08:20:00;;;;;;;2.40;0.93;;;20.30;1.00;;;;;;5012294;28;20041;-48
2023/05/24 08:22:27;;;;;;;4.03;1.30;;;20.30;1.00;;;;;;5011843;28;20517;-47
2023/05/24 08:24:53;;;;;;;5.15;1.48;;;20.30;1.00;;;;;;5012104;28;20041;-51
2023/05/24 08:27:21;;;;;;;2.78;1.35;;;20.30;1.00;;;;;;5011610;28;20405;-47
2023/05/24 08:29:48;;;;;;;8.95;1.70;;;20.30;1.00;;;;;;5012074;28;20470;-50
2023/05/24 08:32:15;;;;;;;6.68;1.58;;;20.30;1.00;;;;;;5012034;28;20405;-48
2023/05/24 08:34:43;;;;;;;5.03;1.98;;;20.30;1.00;;;;;;5011928;28;20130;-47
2023/05/24 08:37:10;;;;;;;4.00;1.20;;;20.30;1.00;;;;;;4996881;28;20096;-47
2023/05/24 08:39:40;;;;;;;2.60;1.33;;;20.30;1.00;;;;;;5003085;28;20046;-48
2023/05/24 08:42:07;;;;;;;6.57;1.40;;;20.30;1.00;;;;;;5013540;28;20046;-49
2023/05/24 08:45:03;;;;;;;4.68;1.23;;;20.30;1.00;;;;;;5013540;28;20073;-47
2023/05/24 08:47:31;;;;;;;4.75;2.00;;;20.30;1.00;;;;;;5003841;28;20054;-47
2023/05/24 08:49:58;;;;;;;6.93;1.48;;;20.30;1.00;;;;;;5015944;28;20037;-48
2023/05/24 08:52:27;;;;;;;5.47;1.10;;;20.30;1.00;;;;;;5015018;28;20053;-47
2023/05/24 08:54:55;;;;;;;6.05;1.58;;;20.30;1.00;;;;;;5008833;28;20389;-48
2023/05/24 08:57:21;;;;;;;6.57;1.40;;;20.40;1.00;;;;;;5015555;28;20048;-50
2023/05/24 08:59:48;;;;;;;3.72;1.60;;;20.40;1.00;;;;;;5015667;28;20049;-47
2023/05/24 09:02:16;;;;;;;4.63;1.50;;;20.40;1.00;;;;;;5015502;28;20050;-47
2023/05/24 09:04:46;;;;;;;4.20;1.50;;;20.40;1.00;;;;;;5019733;28;20130;-48
2023/05/24 09:07:13;;;;;;;7.30;1.55;;;20.40;1.00;;;;;;4995677;28;20046;-47
2023/05/24 09:09:44;;;;;;;7.03;2.08;;;20.40;1.00;;;;;;4995725;28;20053;-50
2023/05/24 09:12:17;;;;;;;6.50;1.98;;;20.40;1.00;;;;;;4995650;28;20038;-48
2023/05/24 09:15:02;;;;;;;6.70;2.28;;;20.40;1.00;;;;;;5009193;28;20038;-48
2023/05/24 09:17:30;;;;;;;5.63;1.20;;;20.40;1.00;;;;;;5014953;28;20042;-47
2023/05/24 09:20:00;;;;;;;4.60;1.13;;;20.40;1.00;;;;;;5015399;28;20121;-48
2023/05/24 09:22:29;;;;;;;5.85;1.42;;;20.40;1.00;;;;;;5015105;28;20073;-48
2023/05/24 09:25:04;;;;;;;7.05;1.70;;;20.40;1.00;;;;;;5015065;28;20038;-48
2023/05/24 09:27:33;;;;;;;5.03;1.50;;;20.40;1.00;;;;;;4997450;28;20052;-48
2023/05/24 09:30:03;;;;;;;5.00;1.30;;;20.40;1.00;;;;;;5014801;28;20038;-51
2023/05/24 09:32:30;;;;;;;4.30;1.45;;;20.40;1.00;;;;;;5014392;28;20048;-49
2023/05/24 09:34:58;;;;;;;4.63;2.10;;;20.40;1.00;;;;;;5014843;28;20504;-47
2023/05/24 09:37:28;;;;;;;5.15;1.73;;;20.40;1.00;;;;;;5014508;28;20096;-49
2023/05/24 09:39:58;;;;;;;7.00;1.90;;;20.40;1.00;;;;;;5015084;28;20038;-48
2023/05/24 09:42:27;;;;;;;3.80;1.77;;;20.40;1.00;;;;;;5014583;28;20055;-50
2023/05/24 09:44:59;;;;;;;4.93;1.60;;;20.50;1.00;;;;;;5014728;28;20416;-47
2023/05/24 09:47:33;;;;;;;3.88;1.48;;;20.40;1.00;;;;;;5014326;28;20517;-47
2023/05/24 09:50:02;;;;;;;6.18;1.55;;;20.50;1.00;;;;;;5014906;28;20034;-48
2023/05/24 09:52:29;;;;;;;4.40;1.38;;;20.50;1.00;;;;;;5006031;28;20061;-47
2023/05/24 09:54:59;;;;;;;4.30;1.70;;;20.50;1.00;;;;;;5013627;28;20041;-47
2023/05/24 09:57:27;;;;;;;6.53;2.20;;;20.50;1.00;;;;;;5014349;28;20042;-47
2023/05/24 09:59:53;;;;;;;4.60;2.58;;;20.50;1.00;;;;;;5008816;28;20084;-47
2023/05/24 10:02:22;;;;;;;4.70;1.63;;;20.50;1.00;;;;;;5007794;28;20038;-48
2023/05/24 10:04:58;;;;;;;13.50;2.20;;;20.50;1.00;;;;;;5017600;28;20081;-47
2023/05/24 10:07:26;;;;;;;9.00;2.75;;;20.50;1.00;;;;;;5013932;28;20042;-47
2023/05/24 10:09:54;;;;;;;6.65;2.30;;;20.40;1.00;;;;;;5006103;28;20492;-49
2023/05/24 10:12:22;;;;;;;7.82;1.90;;;20.50;1.00;;;;;;5014223;28;20052;-48
2023/05/24 10:14:50;;;;;;;10.45;1.75;;;20.50;1.00;;;;;;5012570;28;20034;-49
2023/05/24 10:17:17;;;;;;;8.38;2.05;;;20.50;1.00;;;;;;5013900;28;20038;-48
2023/05/24 10:19:45;;;;;;;15.23;1.83;;;20.50;1.00;;;;;;5013596;28;20126;-47
2023/05/24 10:22:14;;;;;;;10.43;2.95;;;20.40;1.00;;;;;;5014289;28;20548;-47
2023/05/24 10:24:46;;;;;;;6.38;1.85;;;20.40;1.00;;;;;;5004508;28;20050;-48
2023/05/24 10:27:22;;;;;;;14.48;2.30;;;20.50;1.00;;;;;;5006137;28;20042;-48
2023/05/24 10:30:10;;;;;;;7.07;1.92;;;20.40;1.00;;;;;;5013204;28;20042;-48
2023/05/24 10:32:42;;;;;;;8.38;2.05;;;20.40;1.00;;;;;;5013827;28;20046;-50
2023/05/24 10:35:11;;;;;;;16.30;3.30;;;20.40;1.00;;;;;;5013826;28;20068;-49
2023/05/24 10:37:38;;;;;;;10.57;2.38;;;20.40;1.00;;;;;;5005795;28;20104;-50
2023/05/24 10:40:08;;;;;;;5.15;1.77;;;20.40;1.00;;;;;;5013994;28;20493;-49
2023/05/24 10:42:37;;;;;;;8.50;2.13;;;20.40;1.00;;;;;;5013625;28;20046;-47
2023/05/24 10:45:38;;;;;;;9.52;1.88;;;20.40;1.00;;;;;;5013602;28;20048;-49
2023/05/24 10:48:14;;;;;;;10.98;3.08;;;20.40;1.00;;;;;;4971109;28;20050;-49
2023/05/24 10:50:42;;;;;;;8.10;1.90;;;20.40;1.00;;;;;;5013831;28;20064;-50
2023/05/24 10:53:21;;;;;;;12.60;2.40;;;20.40;1.00;;;;;;4999805;28;20058;-47
2023/05/24 10:55:56;;;;;;;11.07;1.83;;;20.40;1.00;;;;;;5012945;28;20092;-48
2023/05/24 10:58:47;;;;;;;15.30;2.13;;;20.40;1.00;;;;;;5013120;28;20038;-47
2023/05/24 11:01:34;;;;;;;4.35;1.52;;;20.40;1.00;;;;;;5013496;28;20042;-49
2023/05/24 11:04:15;;;;;;;7.18;2.10;;;20.40;1.00;;;;;;5017516;28;20059;-48
2023/05/24 11:06:47;;;;;;;5.20;1.42;;;20.40;1.00;;;;;;4996530;28;20118;-48
2023/05/24 11:09:15;;;;;;;9.55;1.98;;;20.40;1.00;;;;;;4993531;28;20038;-49
2023/05/24 11:11:48;;;;;;;8.38;1.60;;;20.40;1.00;;;;;;4993678;28;20042;-50
2023/05/24 11:14:21;;;;;;;;;;;20.40;1.00;;;;;;4993906;28;20038;-48
2023/05/24 11:16:50;;;;;;;8.50;2.40;;;20.40;1.00;;;;;;4993679;28;19922;-47
2023/05/24 11:19:29;;;;;;;9.18;1.70;;;20.40;1.00;;;;;;4993284;28;20045;-48
2023/05/24 11:22:00;;;;;;;7.15;1.45;;;20.40;1.00;;;;;;5013209;28;20563;-47
2023/05/24 11:24:27;;;;;;;7.22;1.73;;;20.40;1.00;;;;;;5012777;28;20049;-47
2023/05/24 11:26:56;;;;;;;9.50;1.58;;;20.50;1.00;;;;;;5013058;28;20056;-47
2023/05/24 11:29:23;;;;;;;7.22;2.55;;;20.40;1.00;;;;;;5012964;28;20545;-49
2023/05/24 11:31:53;;;;;;;4.07;1.35;;;20.40;1.00;;;;;;5012977;28;20040;-47
2023/05/24 11:34:20;;;;;;;7.15;1.73;;;20.50;1.00;;;;;;5013050;28;20092;-48
2023/05/24 11:36:48;;;;;;;3.10;1.00;;;20.40;1.00;;;;;;5013222;28;20157;-46
2023/05/24 11:39:15;;;;;;;6.47;1.50;;;20.50;1.00;;;;;;5012740;28;20037;-48
2023/05/24 11:41:42;;;;;;;4.85;1.20;;;20.50;1.00;;;;;;5012799;28;20489;-48
2023/05/24 11:44:10;;;;;;;5.07;1.35;;;20.50;1.00;;;;;;5012643;28;20041;-47
2023/05/24 11:46:41;;;;;;;6.93;1.58;;;20.40;1.00;;;;;;5012767;28;20066;-47
2023/05/24 11:49:13;;;;;;;4.35;1.30;;;20.50;1.00;;;;;;5012727;28;20545;-46
2023/05/24 11:51:41;;;;;;;6.35;1.60;;;20.50;1.00;;;;;;5012561;28;20108;-46
2023/05/24 11:54:08;;;;;;;4.93;2.05;;;20.50;1.00;;;;;;5012790;28;20050;-47
2023/05/24 11:56:35;;;;;;;6.35;1.90;;;20.50;1.00;;;;;;5012690;28;20649;-48
2023/05/24 11:59:07;;;;;;;5.45;1.90;;;20.50;1.00;;;;;;5009526;28;20046;-51
2023/05/24 12:01:34;;;;;;;7.25;1.48;;;20.50;1.00;;;;;;4993982;28;20127;-47
2023/05/24 12:04:01;;;;;;;6.55;1.50;;;20.50;1.00;;;;;;5002378;28;20116;-47
2023/05/24 12:06:40;;;;;;;4.53;2.30;;;20.50;1.00;;;;;;5001222;28;20391;-49
2023/05/24 12:09:09;;;;;;;7.93;2.78;;;20.50;1.00;;;;;;5005108;28;20064;-47
2023/05/24 12:11:45;;;;;;;9.40;1.73;;;20.50;1.00;;;;;;5009114;28;20463;-50
2023/05/24 12:14:13;;;;;;;11.15;2.03;;;20.50;1.00;;;;;;5006095;28;20105;-52
2023/05/24 12:16:44;;;;;;;11.98;2.45;;;20.50;1.00;;;;;;5017955;28;20126;-50
2023/05/24 12:19:18;;;;;;;18.88;2.72;;;20.50;1.00;;;;;;5005689;28;20050;-49
2023/05/24 12:22:00;;;;;;;7.82;1.70;;;20.50;1.00;;;;;;5007239;28;20125;-52
2023/05/24 12:24:28;;;;;;;8.52;1.92;;;20.50;1.00;;;;;;5006938;28;20612;-52
2023/05/24 12:27:05;;;;;;;8.13;2.05;;;20.50;1.00;;;;;;5008908;28;20034;-48
2023/05/24 12:29:38;;;;;;;8.68;1.77;;;20.50;1.00;;;;;;5013126;28;20042;-50
2023/05/24 12:32:11;;;;;;;8.23;2.42;;;20.50;1.00;;;;;;5014895;28;20084;-48
2023/05/24 12:34:41;;;;;;;8.65;1.83;;;20.50;1.00;;;;;;5013751;28;20055;-51
2023/05/24 12:37:09;;;;;;;10.63;1.85;;;20.40;1.00;;;;;;5011943;28;20069;-50
2023/05/24 12:39:38;;;;;;;5.05;1.60;;;20.50;1.00;;;;;;5012769;28;20042;-48
2023/05/24 12:42:05;;;;;;;6.30;1.63;;;20.50;1.00;;;;;;5009928;28;20057;-48
2023/05/24 12:44:36;;;;;;;5.63;2.28;;;20.50;1.00;;;;;;5012246;28;20034;-51
2023/05/24 12:47:05;;;;;;;8.15;1.80;;;20.50;1.00;;;;;;5003536;28;20066;-47
2023/05/24 12:49:33;;;;;;;5.57;1.45;;;20.50;1.00;;;;;;5008259;28;20045;-48
2023/05/24 12:52:00;;;;;;;11.43;1.75;;;20.50;1.00;;;;;;5004891;28;20502;-47
2023/05/24 12:54:28;;;;;;;9.02;2.80;;;20.50;1.00;;;;;;5011346;28;20052;-47
2023/05/24 12:56:56;;;;;;;5.95;1.42;;;20.50;1.00;;;;;;5008687;28;20064;-49
2023/05/24 12:59:24;;;;;;;9.27;1.88;;;20.50;1.00;;;;;;5009133;28;20069;-48
2023/05/24 13:01:51;;;;;;;9.48;2.70;;;20.50;1.00;;;;;;5009642;28;20414;-50
2023/05/24 13:04:22;;;;;;;7.25;1.83;;;20.50;1.00;;;;;;5010201;28;20080;-51